首页
METAR-TAF:

METAR-TAF

机场 :

Greenbrier Valley Airport

Lewisburg, 西維吉尼亞州, 美国

纬度: 37-52N, 经度: 080-24W, 海拔: 702米

当前天气观测

该预报发布于23分钟前的06:55 UTC
静风
温度 4°C
湿度 70%
气压 1019 hPa
能見度: 16.1公里
阴天层高于4400英尺

METAR: KLWB 170655Z AUTO 00000KT 10SM OVC044 04/M01 A3008 RMK AO2 T00351011

时间: 02:18 (07:18 UTC)

预报

该预报发布于1小时和38分钟前的05:40 UTC
预报有效从17日的 06点(UTC)到 18日的 06点(UTC)
风速3节,风向多变
能見度: 10公里
多云层高于5000英尺
从 17日的 1500点(UTC)
风速4节,风向东转东南
能見度: 10公里
散云层高于5000英尺
多云层高于18000英尺
从 17日的 2100点(UTC)
风速6节,风向东南
能見度: 10公里
散云层高于5000英尺
阴天层高于16000英尺
从 18日的 0300点(UTC)
风速6节,风向东转东南
能見度: 10公里
阴天层高于5000英尺

TAF: KLWB 170540Z 1706/1806 VRB03KT P6SM BKN050 FM171500 12004KT P6SM SCT050 BKN180 FM172100 14006KT P6SM SCT050 OVC160 FM180300 11006KT P6SM OVC050

超过4000个机场的气象观测和天气预报(METAR&TAF报告)。

可查询的气象台以黄色和红色小点在地图上表示。

将鼠标移到小点上方,可查看气象台名称。

然后点击查看天气观测和预报。

如需切换地图:点击带黑十字的绿色按钮放大地图;点击带横线的绿色按钮缩小地图;或者点击绿色箭头查看邻近地区的地图。


METAR-TAF: